createdAt,value
2022-09-11T00:01:40.682Z,100306.72
2022-09-11T00:04:08.448Z,100292.44
2022-09-11T00:06:35.995Z,100277.06
2022-09-11T00:09:06.314Z,100283.50
2022-09-11T00:11:42.317Z,100277.94
2022-09-11T00:14:17.155Z,100263.69
2022-09-11T00:16:48.123Z,100246.31
2022-09-11T00:19:23.497Z,100253.69
2022-09-11T00:21:57.518Z,100259.94
2022-09-11T00:24:27.767Z,100257.56
2022-09-11T00:26:55.168Z,100248.22
2022-09-11T00:29:24.124Z,100252.00
2022-09-11T00:31:51.512Z,100257.88
2022-09-11T00:34:24.355Z,100256.84
2022-09-11T00:36:54.847Z,100261.88
2022-09-11T00:39:22.313Z,100254.00
2022-09-11T00:41:49.834Z,100250.66
2022-09-11T00:44:18.073Z,100259.69
2022-09-11T00:46:53.506Z,100253.41
2022-09-11T00:49:37.504Z,100249.63
2022-09-11T00:52:33.463Z,100255.34
2022-09-11T00:55:16.866Z,100253.91
2022-09-11T00:58:06.308Z,100252.47
2022-09-11T01:00:34.206Z,100250.59
2022-09-11T01:03:01.989Z,100254.59
2022-09-11T01:05:35.064Z,100215.78
2022-09-11T01:08:04.085Z,100245.44
2022-09-11T01:10:45.679Z,100239.69
2022-09-11T01:13:35.936Z,100249.53
2022-09-11T01:16:22.435Z,100221.97
2022-09-11T01:19:25.558Z,100241.69
2022-09-11T01:22:33.741Z,100237.22
2022-09-11T01:25:19.689Z,100238.34
2022-09-11T01:27:56.131Z,100235.44
2022-09-11T01:30:30.484Z,100237.22
2022-09-11T01:33:19.503Z,100226.56
2022-09-11T01:35:47.206Z,100230.00
2022-09-11T01:38:20.372Z,100227.25
2022-09-11T01:41:08.092Z,100227.94
2022-09-11T01:43:43.828Z,100204.28
2022-09-11T01:46:13.689Z,100218.63
2022-09-11T01:48:47.686Z,100208.19
2022-09-11T01:51:19.711Z,100215.22
2022-09-11T01:53:50.599Z,100213.69
2022-09-11T01:56:29.476Z,100204.28
2022-09-11T01:59:03.831Z,100207.31
2022-09-11T02:01:39.179Z,100204.38
2022-09-11T02:04:12.785Z,100197.56
2022-09-11T02:06:53.821Z,100201.19
2022-09-11T02:09:31.484Z,100206.28
2022-09-11T02:12:03.719Z,100206.97
2022-09-11T02:14:39.051Z,100201.34
2022-09-11T02:17:24.844Z,100188.97
2022-09-11T02:19:57.351Z,100195.91
2022-09-11T02:22:25.420Z,100176.91
2022-09-11T02:24:53.854Z,100178.31
2022-09-11T02:27:25.043Z,100169.53
2022-09-11T02:29:54.191Z,100168.44
2022-09-11T02:32:23.120Z,100171.06
2022-09-11T02:34:51.616Z,100162.34
2022-09-11T02:37:51.743Z,100154.56
2022-09-11T02:40:45.094Z,100124.13
2022-09-11T02:43:21.160Z,100148.69
2022-09-11T02:46:09.930Z,100150.03
2022-09-11T02:48:55.552Z,100156.78
2022-09-11T02:51:38.559Z,100147.91
2022-09-11T02:54:15.081Z,100144.59
2022-09-11T02:56:48.532Z,100148.03
2022-09-11T02:59:38.871Z,100132.91
2022-09-11T03:02:17.525Z,100148.78
2022-09-11T03:04:48.757Z,100140.44
2022-09-11T03:07:17.017Z,100143.47
2022-09-11T03:09:44.656Z,100137.03
2022-09-11T03:12:18.661Z,100139.13
2022-09-11T03:14:49.807Z,100132.78
2022-09-11T03:17:17.477Z,100137.34
2022-09-11T03:19:44.922Z,100132.47
2022-09-11T03:22:12.621Z,100121.56
2022-09-11T03:24:39.971Z,100137.63
2022-09-11T03:27:08.565Z,100129.94
2022-09-11T03:29:35.991Z,100139.25
2022-09-11T03:32:03.427Z,100123.47
2022-09-11T03:34:31.973Z,100118.16
2022-09-11T03:37:00.428Z,100129.69
2022-09-11T03:39:29.171Z,100124.44
2022-09-11T03:41:59.627Z,100124.41
2022-09-11T03:44:27.538Z,100117.44
2022-09-11T03:46:54.866Z,100115.00
2022-09-11T03:49:22.241Z,100124.00
2022-09-11T03:51:49.963Z,100115.34
2022-09-11T03:54:19.122Z,100119.72
2022-09-11T03:56:47.315Z,100129.63
2022-09-11T03:59:16.154Z,100127.06
2022-09-11T04:01:44.761Z,100126.81
2022-09-11T04:04:13.439Z,100125.50
2022-09-11T04:06:44.505Z,100124.56
2022-09-11T04:09:12.196Z,100105.50
2022-09-11T04:11:40.330Z,100130.28
2022-09-11T04:14:22.728Z,100122.41
2022-09-11T04:16:52.346Z,100120.78
2022-09-11T04:19:21.592Z,100121.84
2022-09-11T04:21:50.031Z,100115.94
2022-09-11T04:24:17.575Z,100114.81
2022-09-11T04:26:46.992Z,100105.34
2022-09-11T04:29:28.197Z,100112.53
2022-09-11T04:31:57.311Z,100116.47
2022-09-11T04:34:28.242Z,100120.13
2022-09-11T04:36:56.772Z,100118.16
2022-09-11T04:39:24.732Z,100115.22
2022-09-11T04:41:51.937Z,100123.34
2022-09-11T04:44:23.011Z,100118.63
2022-09-11T04:46:51.494Z,100105.50
2022-09-11T04:49:20.197Z,100120.66
2022-09-11T04:51:47.937Z,100084.09
2022-09-11T04:54:21.612Z,100114.69
2022-09-11T04:56:53.073Z,100111.09
2022-09-11T04:59:23.656Z,100122.91
2022-09-11T05:01:56.611Z,100121.50
2022-09-11T05:04:26.366Z,100114.38
2022-09-11T05:06:55.544Z,100117.56
2022-09-11T05:09:24.412Z,100097.56
2022-09-11T05:11:52.044Z,100117.25
2022-09-11T05:14:21.738Z,100116.00
2022-09-11T05:16:53.049Z,100105.91
2022-09-11T05:19:24.009Z,100093.06
2022-09-11T05:21:53.502Z,100112.91
2022-09-11T05:24:20.869Z,100120.97
2022-09-11T05:26:49.218Z,100110.69
2022-09-11T05:29:17.498Z,100121.34
2022-09-11T05:32:07.225Z,100111.31
2022-09-11T05:34:34.668Z,100115.81
2022-09-11T05:37:03.489Z,100117.03
2022-09-11T05:39:36.287Z,100117.31
2022-09-11T05:42:04.786Z,100111.00
2022-09-11T05:44:38.269Z,100113.00
2022-09-11T05:47:06.873Z,100119.41
2022-09-11T05:49:34.262Z,100105.19
2022-09-11T05:52:02.778Z,100110.34
2022-09-11T05:54:32.359Z,100119.09
2022-09-11T05:57:07.015Z,100108.50
2022-09-11T05:59:36.860Z,100117.53
2022-09-11T06:02:04.314Z,100126.91
2022-09-11T06:04:39.925Z,100119.78
2022-09-11T06:07:08.454Z,100116.47
2022-09-11T06:09:36.877Z,100114.75
2022-09-11T06:12:04.708Z,100120.50
2022-09-11T06:14:32.473Z,100105.13
2022-09-11T06:17:00.767Z,100126.47
2022-09-11T06:19:31.365Z,100124.34
2022-09-11T06:21:59.224Z,100120.91
2022-09-11T06:24:33.864Z,100113.06
2022-09-11T06:27:02.499Z,100123.38
2022-09-11T06:29:34.710Z,100114.72
2022-09-11T06:32:04.094Z,100108.13
2022-09-11T06:34:34.180Z,100118.50
2022-09-11T06:37:05.618Z,100113.88
2022-09-11T06:39:34.432Z,100099.09
2022-09-11T06:42:03.041Z,100111.84
2022-09-11T06:44:35.829Z,100101.22
2022-09-11T06:47:04.295Z,100116.31
2022-09-11T06:49:33.265Z,100110.16
2022-09-11T06:52:20.107Z,100115.25
2022-09-11T06:55:00.430Z,100108.66
2022-09-11T06:57:28.888Z,100110.50
2022-09-11T06:59:58.921Z,100116.94
2022-09-11T07:02:27.284Z,100113.34
2022-09-11T07:04:55.225Z,100122.53
2022-09-11T07:07:25.629Z,100121.66
2022-09-11T07:09:52.980Z,100119.66
2022-09-11T07:12:24.279Z,100132.19
2022-09-11T07:14:52.265Z,100124.03
2022-09-11T07:17:19.680Z,100123.56
2022-09-11T07:19:50.534Z,100119.78
2022-09-11T07:22:19.935Z,100124.31
2022-09-11T07:24:48.945Z,100121.59
2022-09-11T07:27:16.163Z,100109.97
2022-09-11T07:29:44.620Z,100115.72
2022-09-11T07:32:12.015Z,100125.44
2022-09-11T07:34:42.632Z,100115.66
2022-09-11T07:37:11.126Z,100116.91
2022-09-11T07:39:40.186Z,100111.47
2022-09-11T07:42:13.328Z,100119.44
2022-09-11T07:44:42.183Z,100116.28
2022-09-11T07:47:10.226Z,100123.03
2022-09-11T07:49:42.751Z,100117.34
2022-09-11T07:52:12.607Z,100117.97
2022-09-11T07:54:48.629Z,100121.56
2022-09-11T07:57:16.680Z,100130.59
2022-09-11T07:59:45.023Z,100122.53
2022-09-11T08:02:13.489Z,100119.84
2022-09-11T08:04:42.549Z,100122.41
2022-09-11T08:07:11.150Z,100120.91
2022-09-11T08:09:39.394Z,100121.94
2022-09-11T08:12:07.961Z,100124.97
2022-09-11T08:14:37.231Z,100122.94
2022-09-11T08:17:16.621Z,100140.84
2022-09-11T08:19:44.049Z,100132.34
2022-09-11T08:22:13.213Z,100128.38
2022-09-11T08:24:44.742Z,100134.13
2022-09-11T08:27:15.200Z,100133.91
2022-09-11T08:29:43.307Z,100134.66
2022-09-11T08:32:11.145Z,100144.63
2022-09-11T08:34:39.600Z,100140.47
2022-09-11T08:37:06.999Z,100133.47
2022-09-11T08:39:36.066Z,100134.50
2022-09-11T08:42:13.400Z,100123.44
2022-09-11T08:44:53.856Z,100140.66
2022-09-11T08:47:37.446Z,100141.00
2022-09-11T08:50:20.586Z,100134.00
2022-09-11T08:52:49.043Z,100126.72
2022-09-11T08:55:30.338Z,100111.38
2022-09-11T08:58:19.406Z,100124.66
2022-09-11T09:01:02.265Z,100116.75
2022-09-11T09:03:35.759Z,100116.16
2022-09-11T09:06:17.313Z,100116.06
2022-09-11T09:09:00.915Z,100110.00
2022-09-11T09:11:53.548Z,100113.38
2022-09-11T09:14:36.949Z,100105.97
2022-09-11T09:17:20.341Z,100103.31
2022-09-11T09:20:00.766Z,100099.69
2022-09-11T09:22:36.852Z,100105.56
2022-09-11T09:25:13.737Z,100081.59
2022-09-11T09:27:54.491Z,100090.47
2022-09-11T09:30:24.861Z,100103.19
2022-09-11T09:33:01.445Z,100087.13
2022-09-11T09:35:41.950Z,100091.69
2022-09-11T09:38:23.852Z,100076.88
2022-09-11T09:41:26.216Z,100088.88
2022-09-11T09:44:24.722Z,100088.56
2022-09-11T09:46:56.372Z,100091.75
2022-09-11T09:49:28.199Z,100081.88
2022-09-11T09:52:03.603Z,100053.25
2022-09-11T09:54:36.663Z,100081.25
2022-09-11T09:57:10.687Z,100079.56
2022-09-11T09:59:51.997Z,100075.09
2022-09-11T10:02:54.971Z,100072.22
2022-09-11T10:05:27.468Z,100072.41
2022-09-11T10:07:58.657Z,100071.84
2022-09-11T10:10:29.628Z,100070.56
2022-09-11T10:13:18.028Z,100058.72
2022-09-11T10:15:49.366Z,100063.81
2022-09-11T10:18:32.522Z,100063.44
2022-09-11T10:21:12.036Z,100050.88
2022-09-11T10:24:24.023Z,100056.97
2022-09-11T10:26:54.438Z,100063.97
2022-09-11T10:29:30.283Z,100046.91
2022-09-11T10:32:02.705Z,100052.84
2022-09-11T10:34:48.925Z,100053.38
2022-09-11T10:37:25.573Z,100047.44
2022-09-11T10:39:54.304Z,100040.00
2022-09-11T10:42:27.844Z,100044.22
2022-09-11T10:45:02.287Z,100023.19
2022-09-11T10:47:33.093Z,100045.69
2022-09-11T10:50:18.976Z,100043.72
2022-09-11T10:52:58.653Z,100048.56
2022-09-11T10:55:55.972Z,100045.66
2022-09-11T10:58:31.357Z,100034.78
2022-09-11T11:00:58.823Z,100027.03
2022-09-11T11:03:28.559Z,100029.09
2022-09-11T11:06:36.095Z,100033.34
2022-09-11T11:09:43.703Z,100023.09
2022-09-11T11:12:50.153Z,100010.63
2022-09-11T11:15:30.505Z,100023.56
2022-09-11T11:18:16.308Z,100019.41
2022-09-11T11:20:48.877Z,100005.47
2022-09-11T11:23:30.115Z,100016.34
2022-09-11T11:26:13.424Z,100021.84
2022-09-11T11:28:58.868Z,100008.25
2022-09-11T11:32:01.273Z,100016.34
2022-09-11T11:35:04.245Z,100007.97
2022-09-11T11:37:40.221Z,100017.44
2022-09-11T11:40:29.343Z,100005.88
2022-09-11T11:43:03.712Z,100012.16
2022-09-11T11:45:56.021Z,99992.69
2022-09-11T11:48:31.681Z,100009.59
2022-09-11T11:51:15.621Z,99999.03
2022-09-11T11:54:03.555Z,100006.78
2022-09-11T11:57:02.504Z,100018.09
2022-09-11T11:59:42.365Z,100014.34
2022-09-11T12:02:09.647Z,100025.50
2022-09-11T12:05:00.315Z,100024.72
2022-09-11T12:07:33.418Z,100017.50
2022-09-11T12:10:03.849Z,100027.00
2022-09-11T12:12:47.990Z,100031.22
2022-09-11T12:15:24.543Z,100030.47
2022-09-11T12:18:07.255Z,100026.66
2022-09-11T12:20:39.414Z,100034.50
2022-09-11T12:23:28.169Z,100022.66
2022-09-11T12:26:25.152Z,100032.97
2022-09-11T12:29:25.253Z,100014.88
2022-09-11T12:31:52.583Z,100013.97
2022-09-11T12:34:27.665Z,100017.34
2022-09-11T12:37:00.906Z,100014.91
2022-09-11T12:39:35.867Z,100018.50
2022-09-11T12:42:24.699Z,100011.81
2022-09-11T12:44:51.882Z,100012.25
2022-09-11T12:47:27.644Z,100005.34
2022-09-11T12:50:06.157Z,100010.69
2022-09-11T12:52:45.382Z,99997.94
2022-09-11T12:55:43.565Z,99994.91
2022-09-11T12:58:25.636Z,99995.53
2022-09-11T13:01:23.509Z,99983.81
2022-09-11T13:04:21.846Z,99995.09
2022-09-11T13:06:55.086Z,99990.06
2022-09-11T13:09:26.070Z,99990.53
2022-09-11T13:11:55.380Z,99994.47
2022-09-11T13:14:33.555Z,99989.09
2022-09-11T13:17:03.038Z,99995.09
2022-09-11T13:19:37.814Z,99997.31
2022-09-11T13:22:31.332Z,99989.81
2022-09-11T13:25:22.876Z,99992.72
2022-09-11T13:28:06.361Z,99988.25
2022-09-11T13:30:34.381Z,99985.28
2022-09-11T13:33:20.625Z,99995.72
2022-09-11T13:35:50.495Z,99992.59
2022-09-11T13:38:32.657Z,99991.63
2022-09-11T13:41:06.516Z,99985.19
2022-09-11T13:43:59.356Z,99982.56
2022-09-11T13:46:26.832Z,99980.41
2022-09-11T14:01:53.602Z,100002.16
2022-09-11T14:04:22.051Z,99975.88
2022-09-11T14:06:49.530Z,99983.06
2022-09-11T14:09:20.421Z,99987.91
2022-09-11T14:11:48.561Z,99982.63
2022-09-11T14:14:26.183Z,99972.28
2022-09-11T14:16:59.359Z,99978.28
2022-09-11T14:19:30.965Z,99970.47
2022-09-11T14:21:59.221Z,99976.50
2022-09-11T14:24:35.241Z,99975.97
2022-09-11T14:27:04.937Z,99976.44
2022-09-11T14:29:36.453Z,99978.63
2022-09-11T14:32:23.538Z,99973.31
2022-09-11T14:34:50.936Z,99982.06
2022-09-11T14:37:18.311Z,99988.38
2022-09-11T14:39:50.501Z,99974.69
2022-09-11T14:42:23.676Z,99976.75
2022-09-11T14:44:51.675Z,99977.19
2022-09-11T14:47:23.021Z,99975.66
2022-09-11T14:49:55.497Z,99965.16
2022-09-11T14:52:25.829Z,99971.63
2022-09-11T14:54:54.404Z,99936.28
2022-09-11T14:57:25.257Z,99937.47
2022-09-11T14:59:53.256Z,99968.88
2022-09-11T15:02:25.857Z,99954.66
2022-09-11T15:04:55.421Z,99967.72
2022-09-11T15:07:24.316Z,99969.75
2022-09-11T15:09:53.983Z,99959.03
2022-09-11T15:12:22.711Z,99970.78
2022-09-11T15:14:59.114Z,99961.31
2022-09-11T15:17:31.914Z,99963.56
2022-09-11T15:20:00.867Z,99972.28
2022-09-11T15:22:29.135Z,99981.50
2022-09-11T15:24:58.377Z,99978.63
2022-09-11T15:27:25.863Z,99971.31
2022-09-11T15:29:54.066Z,99981.44
2022-09-11T15:32:21.571Z,99962.25
2022-09-11T15:34:49.348Z,99965.19
2022-09-11T15:37:17.260Z,99969.66
2022-09-11T15:39:44.940Z,99982.59
2022-09-11T15:42:13.723Z,99983.06
2022-09-11T15:44:41.226Z,99976.84
2022-09-11T15:47:09.212Z,99958.81
2022-09-11T15:49:44.844Z,99978.88
2022-09-11T15:52:12.796Z,99960.69
2022-09-11T15:54:40.360Z,99973.00
2022-09-11T15:57:08.416Z,99977.03
2022-09-11T15:59:35.792Z,99978.50
2022-09-11T16:02:03.200Z,99978.47
2022-09-11T16:04:32.432Z,99989.66
2022-09-11T16:07:00.241Z,99997.28
2022-09-11T16:09:33.412Z,99980.78
2022-09-11T16:12:02.130Z,99985.59
2022-09-11T16:14:35.248Z,99974.19
2022-09-11T16:17:03.798Z,99975.88
2022-09-11T16:19:31.978Z,99979.56
2022-09-11T16:22:01.766Z,99985.06
2022-09-11T16:24:31.028Z,99980.13
2022-09-11T16:27:01.001Z,99964.09
2022-09-11T16:29:51.160Z,99978.50
2022-09-11T16:32:28.844Z,99979.72
2022-09-11T16:34:57.923Z,99978.84
2022-09-11T16:37:26.249Z,99980.75
2022-09-11T16:39:55.054Z,99956.41
2022-09-11T16:42:22.904Z,99982.34
2022-09-11T16:44:55.207Z,99976.75
2022-09-11T16:47:23.202Z,99979.50
2022-09-11T16:50:06.433Z,99956.31
2022-09-11T16:52:34.941Z,99982.22
2022-09-11T16:55:02.676Z,99980.91
2022-09-11T16:57:31.232Z,99959.63
2022-09-11T16:59:59.083Z,99978.28
2022-09-11T17:02:27.207Z,99975.78
2022-09-11T17:04:54.541Z,99976.66
2022-09-11T17:07:21.849Z,99987.00
2022-09-11T17:09:49.221Z,99980.41
2022-09-11T17:12:18.178Z,99975.78
2022-09-11T17:14:45.504Z,99978.66
2022-09-11T17:17:14.014Z,99976.47
2022-09-11T17:19:42.024Z,99983.38
2022-09-11T17:22:10.609Z,99988.78
2022-09-11T17:24:39.105Z,99996.97
2022-09-11T17:27:07.644Z,99987.50
2022-09-11T17:29:35.477Z,99988.84
2022-09-11T17:32:26.214Z,99999.72
2022-09-11T17:34:51.682Z,100006.25
2022-09-11T17:37:19.000Z,100018.94
2022-09-11T17:39:47.082Z,100023.41
2022-09-11T17:42:14.409Z,100030.03
2022-09-11T17:44:43.110Z,100004.34
2022-09-11T17:47:10.456Z,100029.84
2022-09-11T17:49:38.644Z,100035.78
2022-09-11T17:52:06.189Z,100031.50
2022-09-11T17:54:33.708Z,100030.22
2022-09-11T17:57:01.309Z,100013.88
2022-09-11T17:59:28.613Z,100028.94
2022-09-11T18:01:56.014Z,100038.25
2022-09-11T18:04:23.375Z,100044.84
2022-09-11T18:06:51.429Z,100041.00
2022-09-11T18:09:20.195Z,100045.41
2022-09-11T18:11:50.626Z,100051.38
2022-09-11T18:14:19.093Z,100049.03
2022-09-11T18:16:50.619Z,100058.59
2022-09-11T18:19:20.790Z,100055.78
2022-09-11T18:21:50.594Z,100044.91
2022-09-11T18:24:20.860Z,100061.88
2022-09-11T18:26:57.241Z,100059.72
2022-09-11T18:29:24.807Z,100062.94
2022-09-11T18:31:56.299Z,100066.06
2022-09-11T18:34:27.847Z,100070.94
2022-09-11T18:36:55.411Z,100070.75
2022-09-11T18:39:22.898Z,100072.84
2022-09-11T18:41:53.075Z,100061.34
2022-09-11T18:44:22.526Z,100073.03
2022-09-11T18:46:53.596Z,100074.50
2022-09-11T18:49:21.770Z,100081.94
2022-09-11T18:51:49.190Z,100067.25
2022-09-11T18:54:20.491Z,100051.50
2022-09-11T18:56:49.430Z,100075.25
2022-09-11T18:59:17.320Z,100073.97
2022-09-11T19:01:44.970Z,100077.78
2022-09-11T19:04:14.985Z,100052.88
2022-09-11T19:06:42.606Z,100079.22
2022-09-11T19:09:12.649Z,100082.59
2022-09-11T19:11:41.004Z,100084.06
2022-09-11T19:14:10.826Z,100085.09
2022-09-11T19:16:39.501Z,100084.63
2022-09-11T19:19:07.797Z,100085.03
2022-09-11T19:21:36.612Z,100089.78
2022-09-11T19:24:04.712Z,100093.59
2022-09-11T19:26:36.000Z,100091.44
2022-09-11T19:29:03.432Z,100083.28
2022-09-11T19:31:30.822Z,100091.78
2022-09-11T19:34:01.737Z,100088.66
2022-09-11T19:36:32.254Z,100088.94
2022-09-11T19:39:01.096Z,100070.44
2022-09-11T19:41:31.276Z,100083.38
2022-09-11T19:44:01.747Z,100088.88
2022-09-11T19:46:30.761Z,100088.19
2022-09-11T19:49:00.941Z,100090.50
2022-09-11T19:51:31.243Z,100095.94
2022-09-11T19:54:00.615Z,100094.00
2022-09-11T19:56:29.601Z,100089.72
2022-09-11T19:58:57.150Z,100087.88
2022-09-11T20:01:25.922Z,100087.47
2022-09-11T20:03:55.348Z,100096.84
2022-09-11T20:06:25.685Z,100077.28
2022-09-11T20:09:07.967Z,100095.38
2022-09-11T20:11:41.976Z,100082.38
2022-09-11T20:14:10.585Z,100072.09
2022-09-11T20:16:38.154Z,100084.19
2022-09-11T20:19:06.736Z,100079.72
2022-09-11T20:21:36.325Z,100102.25
2022-09-11T20:24:06.539Z,100073.28
2022-09-11T20:26:34.538Z,100088.81
2022-09-11T20:29:07.103Z,100090.50
2022-09-11T20:31:48.019Z,100091.28
2022-09-11T20:34:19.966Z,100094.50
2022-09-11T20:36:48.485Z,100096.81
2022-09-11T20:39:16.824Z,100073.81
2022-09-11T20:41:44.550Z,100075.25
2022-09-11T20:44:12.303Z,100104.84
2022-09-11T20:46:40.053Z,100100.72
2022-09-11T20:49:07.569Z,100097.31
2022-09-11T20:51:35.117Z,100108.09
2022-09-11T20:54:02.815Z,100107.84
2022-09-11T20:56:30.343Z,99997.84
2022-09-11T20:58:57.925Z,100108.31
2022-09-11T21:01:27.123Z,100116.19
2022-09-11T21:03:57.310Z,100121.34
2022-09-11T21:06:27.417Z,100113.22
2022-09-11T21:08:59.929Z,100118.41
2022-09-11T21:11:41.563Z,100128.75
2022-09-11T21:14:10.169Z,100131.38
2022-09-11T21:16:38.159Z,100116.47
2022-09-11T21:19:06.972Z,100124.72
2022-09-11T21:21:38.012Z,100115.47
2022-09-11T21:24:07.426Z,100128.63
2022-09-11T21:26:35.670Z,100103.59
2022-09-11T21:29:07.549Z,100127.91
2022-09-11T21:31:35.524Z,100119.78
2022-09-11T21:34:04.478Z,100124.09
2022-09-11T21:36:33.682Z,100129.97
2022-09-11T21:39:01.070Z,100130.81
2022-09-11T21:41:28.471Z,100125.56
2022-09-11T21:43:55.875Z,100118.41
2022-09-11T21:46:23.343Z,100131.72
2022-09-11T21:48:50.791Z,100136.91
2022-09-11T21:51:20.537Z,100127.72
2022-09-11T21:53:50.084Z,100098.69
2022-09-11T21:56:20.125Z,100130.94
2022-09-11T21:58:50.673Z,100130.13
2022-09-11T22:01:18.836Z,100136.97
2022-09-11T22:03:46.938Z,100125.41
2022-09-11T22:06:14.803Z,100130.06
2022-09-11T22:08:47.325Z,100125.47
2022-09-11T22:11:15.562Z,100114.66
2022-09-11T22:13:43.339Z,100110.03
2022-09-11T22:16:13.944Z,100126.25
2022-09-11T22:18:41.958Z,100110.09
2022-09-11T22:21:10.544Z,100106.41
2022-09-11T22:23:37.993Z,100102.69
2022-09-11T22:26:09.269Z,100129.22
2022-09-11T22:28:38.114Z,100118.53
2022-09-11T22:31:10.558Z,100123.06
2022-09-11T22:33:39.564Z,100122.47
2022-09-11T22:36:12.134Z,100116.91
2022-09-11T22:38:39.838Z,100126.13
2022-09-11T22:41:07.817Z,100128.94
2022-09-11T22:43:35.548Z,100128.88
2022-09-11T22:46:03.410Z,100123.16
2022-09-11T22:48:30.822Z,100120.72
2022-09-11T22:50:58.394Z,100117.47
2022-09-11T22:53:27.153Z,100124.22
2022-09-11T22:55:55.334Z,100114.25
2022-09-11T22:58:24.225Z,100118.25
2022-09-11T23:00:55.047Z,100114.00
2022-09-11T23:03:22.707Z,100109.16
2022-09-11T23:06:14.528Z,100115.28
2022-09-11T23:08:42.171Z,100109.13
2022-09-11T23:11:11.407Z,100108.97
2022-09-11T23:13:39.049Z,100112.06
2022-09-11T23:16:15.617Z,100106.47
2022-09-11T23:18:44.566Z,100114.88
2022-09-11T23:21:12.943Z,100116.84
2022-09-11T23:23:45.107Z,100095.19
2022-09-11T23:26:13.986Z,100123.00
2022-09-11T23:28:41.965Z,100113.56
2022-09-11T23:31:18.821Z,100114.19
2022-09-11T23:33:47.489Z,100106.53
2022-09-11T23:36:16.811Z,100108.44
2022-09-11T23:38:46.006Z,100106.53
2022-09-11T23:41:15.801Z,100112.97
2022-09-11T23:43:43.604Z,100108.69
2022-09-11T23:46:23.464Z,100104.06
2022-09-11T23:48:51.058Z,100107.38
2022-09-11T23:51:18.574Z,100098.00
2022-09-11T23:53:45.970Z,100111.66
2022-09-11T23:56:14.668Z,100108.69
2022-09-11T23:58:42.827Z,100110.47
